sensor_id;sensor_type;location;lat;lon;timestamp;temperature;humidity
55026;DHT22;40925;45.666;18.994;2023-07-22T08:41:00;717.70;2432.00
55026;DHT22;40925;45.666;18.994;2023-07-22T08:43:27;717.70;2432.00
55026;DHT22;40925;45.666;18.994;2023-07-22T08:45:54;717.70;2432.00
55026;DHT22;40925;45.666;18.994;2023-07-22T08:48:21;742.50;2432.00
55026;DHT22;40925;45.666;18.994;2023-07-22T08:51:21;742.70;2432.00
55026;DHT22;40925;45.666;18.994;2023-07-22T08:53:49;742.70;2432.00
55026;DHT22;40925;45.666;18.994;2023-07-22T08:56:16;742.80;2432.00
55026;DHT22;40925;45.666;18.994;2023-07-22T09:10:57;743.30;2227.20
55026;DHT22;40925;45.666;18.994;2023-07-22T09:13:25;743.20;2252.80
55026;DHT22;40925;45.666;18.994;2023-07-22T09:15:52;743.10;2252.80
55026;DHT22;40925;45.666;18.994;2023-07-22T09:18:18;743.20;2278.40
55026;DHT22;40925;45.666;18.994;2023-07-22T09:25:37;768.80;2099.20
55026;DHT22;40925;45.666;18.994;2023-07-22T09:28:03;768.80;2124.80
55026;DHT22;40925;45.666;18.994;2023-07-22T09:30:37;768.50;2124.80
55026;DHT22;40925;45.666;18.994;2023-07-22T09:38:13;793.60;2073.60
55026;DHT22;40925;45.666;18.994;2023-07-22T09:40:42;768.80;2073.60
55026;DHT22;40925;45.666;18.994;2023-07-22T09:43:10;768.70;2048.00
55026;DHT22;40925;45.666;18.994;2023-07-22T09:45:36;768.80;2099.20
55026;DHT22;40925;45.666;18.994;2023-07-22T10:00:24;794.40;1971.20
55026;DHT22;40925;45.666;18.994;2023-07-22T10:02:51;794.20;1945.60
55026;DHT22;40925;45.666;18.994;2023-07-22T10:10:19;793.70;2022.40
55026;DHT22;40925;45.666;18.994;2023-07-22T10:15:16;819.20;1996.80
55026;DHT22;40925;45.666;18.994;2023-07-22T10:25:15;794.40;1945.60
55026;DHT22;40925;45.666;18.994;2023-07-22T10:27:42;819.20;1996.80
55026;DHT22;40925;45.666;18.994;2023-07-22T10:45:50;820.00;1843.20
55026;DHT22;40925;45.666;18.994;2023-07-22T10:48:21;819.70;1817.60
55026;DHT22;40925;45.666;18.994;2023-07-22T10:50:52;819.90;1843.20
55026;DHT22;40925;45.666;18.994;2023-07-22T10:56:18;820.00;1766.40
55026;DHT22;40925;45.666;18.994;2023-07-22T11:14:26;845.30;1792.00
55026;DHT22;40925;45.666;18.994;2023-07-22T11:16:53;845.30;1766.40
55026;DHT22;40925;45.666;18.994;2023-07-22T11:19:21;845.10;1766.40
55026;DHT22;40925;45.666;18.994;2023-07-22T11:21:48;820.00;1817.60
55026;DHT22;40925;45.666;18.994;2023-07-22T11:24:15;820.00;1792.00
55026;DHT22;40925;45.666;18.994;2023-07-22T11:26:41;819.70;1792.00
55026;DHT22;40925;45.666;18.994;2023-07-22T11:29:08;819.50;1792.00
55026;DHT22;40925;45.666;18.994;2023-07-22T11:34:05;794.50;1817.60
55026;DHT22;40925;45.666;18.994;2023-07-22T11:39:13;820.00;1740.80
55026;DHT22;40925;45.666;18.994;2023-07-22T11:41:40;820.00;1715.20
55026;DHT22;40925;45.666;18.994;2023-07-22T11:44:08;844.80;1715.20
55026;DHT22;40925;45.666;18.994;2023-07-22T11:54:22;845.20;1664.00
55026;DHT22;40925;45.666;18.994;2023-07-22T11:56:48;820.10;1664.00
55026;DHT22;40925;45.666;18.994;2023-07-22T11:59:14;820.00;1612.80
55026;DHT22;40925;45.666;18.994;2023-07-22T12:01:46;819.80;1689.60
55026;DHT22;40925;45.666;18.994;2023-07-22T12:04:14;819.80;1689.60
55026;DHT22;40925;45.666;18.994;2023-07-22T12:06:41;820.10;1689.60
55026;DHT22;40925;45.666;18.994;2023-07-22T12:09:09;844.80;1664.00
55026;DHT22;40925;45.666;18.994;2023-07-22T12:14:33;845.60;1664.00
55026;DHT22;40925;45.666;18.994;2023-07-22T12:17:07;845.60;1638.40
55026;DHT22;40925;45.666;18.994;2023-07-22T12:19:34;845.60;1638.40
55026;DHT22;40925;45.666;18.994;2023-07-22T12:22:00;845.40;1664.00
55026;DHT22;40925;45.666;18.994;2023-07-22T12:24:27;845.50;1638.40
55026;DHT22;40925;45.666;18.994;2023-07-22T12:26:53;870.40;1664.00
55026;DHT22;40925;45.666;18.994;2023-07-22T12:29:19;845.30;1689.60
55026;DHT22;40925;45.666;18.994;2023-07-22T12:31:45;845.40;1689.60
55026;DHT22;40925;45.666;18.994;2023-07-22T12:37:29;844.80;1689.60
55026;DHT22;40925;45.666;18.994;2023-07-22T12:40:07;820.00;1638.40
55026;DHT22;40925;45.666;18.994;2023-07-22T12:42:37;820.10;1664.00
55026;DHT22;40925;45.666;18.994;2023-07-22T12:45:05;820.00;1638.40
55026;DHT22;40925;45.666;18.994;2023-07-22T12:47:40;845.20;1664.00
55026;DHT22;40925;45.666;18.994;2023-07-22T12:50:06;845.10;1587.20
55026;DHT22;40925;45.666;18.994;2023-07-22T12:52:35;845.10;1612.80
55026;DHT22;40925;45.666;18.994;2023-07-22T12:55:01;845.10;1587.20
55026;DHT22;40925;45.666;18.994;2023-07-22T12:57:27;820.10;1612.80
55026;DHT22;40925;45.666;18.994;2023-07-22T12:59:53;820.00;1689.60
55026;DHT22;40925;45.666;18.994;2023-07-22T13:02:19;844.80;1638.40
55026;DHT22;40925;45.666;18.994;2023-07-22T13:04:44;844.80;1638.40
55026;DHT22;40925;45.666;18.994;2023-07-22T13:07:30;845.00;1638.40
55026;DHT22;40925;45.666;18.994;2023-07-22T13:09:55;845.30;1664.00
55026;DHT22;40925;45.666;18.994;2023-07-22T13:12:27;870.40;1689.60
55026;DHT22;40925;45.666;18.994;2023-07-22T17:25:12;742.80;1843.20
55026;DHT22;40925;45.666;18.994;2023-07-22T17:27:38;742.70;1817.60
55026;DHT22;40925;45.666;18.994;2023-07-22T17:30:04;742.60;1843.20
55026;DHT22;40925;45.666;18.994;2023-07-22T18:01:48;742.60;1920.00
55026;DHT22;40925;45.666;18.994;2023-07-22T18:04:17;717.70;1945.60
55026;DHT22;40925;45.666;18.994;2023-07-22T18:09:09;717.30;2124.80
55026;DHT22;40925;45.666;18.994;2023-07-22T18:11:34;717.20;2099.20
55026;DHT22;40925;45.666;18.994;2023-07-22T18:14:00;717.00;2380.80
55026;DHT22;40925;45.666;18.994;2023-07-22T18:16:27;716.80;2432.00
55026;DHT22;40925;45.666;18.994;2023-07-22T18:18:52;716.80;2432.00
55026;DHT22;40925;45.666;18.994;2023-07-22T18:21:18;716.80;2432.00
55026;DHT22;40925;45.666;18.994;2023-07-22T18:23:44;692.00;2432.00
55026;DHT22;40925;45.666;18.994;2023-07-22T18:31:02;666.50;2432.00
55026;DHT22;40925;45.666;18.994;2023-07-22T18:35:54;640.90;2432.00
55026;DHT22;40925;45.666;18.994;2023-07-22T18:38:20;640.80;2432.00
55026;DHT22;40925;45.666;18.994;2023-07-22T18:45:38;640.60;2432.00
55026;DHT22;40925;45.666;18.994;2023-07-22T18:48:09;640.30;2432.00
55026;DHT22;40925;45.666;18.994;2023-07-22T18:55:28;640.50;2432.00
55026;DHT22;40925;45.666;18.994;2023-07-22T18:57:59;640.10;2432.00
55026;DHT22;40925;45.666;18.994;2023-07-22T19:00:28;640.00;2432.00
55026;DHT22;40925;45.666;18.994;2023-07-22T19:02:55;615.30;2432.00
55026;DHT22;40925;45.666;18.994;2023-07-22T19:05:22;615.30;2432.00
55026;DHT22;40925;45.666;18.994;2023-07-22T19:07:47;615.10;2432.00
